Bismarck, IL (61814)

11:10 PM CDT on August 20, 2014 (GMT -0500)
Danville | Change Station
CLOSE
Current Station
Airport
Location: Danville,
Elevation: 696 ft
Nearby Weather Stations
Active Advisory: Special Statement

Elev 696 ft 40.20 °N, 87.59 °W | Updated 15 minutes ago

Rain
Rain
70 °F
Feels Like 70 °F
N
4
Wind Variable Wind from SE

Today
High -- | Low -- °F
--% Chance of Precip.
Yesterday
High -- | Low -- °F
Precip. -- in
6:06 AM 7:40 PM
Waning Crescent, 17% visible
Pressure 29.97 in
Visibility 10.0 miles
Clouds Clear
Dew Point 68 °F
Humidity 94%
Rainfall 0.03 in
Snow Depth Not available.
UV 0 out of 12
Pollen 9.70 out of 12
Air Quality Not available.
Flu Activity Not available.
METAR KDNV 210355Z AUTO 13003KT 10SM RA CLR 21/20 A2997

More Conditions Fewer Conditions

Pressure 29.97 in
Visibility 10.0 miles
Clouds Clear
Dew Point 68 °F
Humidity 94%
Rainfall 0.03 in
Snow Depth Not available.
UV 0 out of 12
Pollen 9.70 out of 12
Air Quality Not available.
Flu Activity Not available.
METAR KDNV 210355Z AUTO 13003KT 10SM RA CLR 21/20 A2997

More Conditions Fewer Conditions

10-Day Weather Forecast

Almanac

Astronomy

Aug. 20, 2014 Rise Set
Actual Time 6:06 AM CDT 7:40 PM CDT
Civil Twilight 5:37 AM CDT 8:09 PM CDT
Nautical Twilight 5:02 AM CDT 8:43 PM CDT
Astronomical Twilight 4:26 AM CDT 9:20 PM CDT
Moon 1:45 AM CDT (8/20) 4:25 PM CDT (8/20)
Length of Visible Light 14h 31m
Length of Day
13h 34m
Tomorrow will be 2m 25s shorter.
Waning Crescent, 17% of the Moon is Illuminated
Aug 21
Waning Crescent
Aug 25
New
Sep 2
First Quarter
Sep 8
Full
Sep 15
Last Quarter

Today's Extremes

State Highs State Lows

Community

WunderPhotos

Upload Photos

1,745,851 photos uploaded!

Nearby

Snow Depth

Station Depth Elevation
No new snow has been reported.

Earthquake Activity

City Distance Mag. Time & Date
No recent earthquake activity has been reported nearby.
Minimum magnitude displayed is 2.5.

Coastal Water Temperatures

Place Temperature
No Stations Reporting

Nearby Weather Stations